Time;durP1;ratioP1;P1;durP2;ratioP2;P2;SDS_P1;SDS_P2;PMS_P1;PMS_P2;Temp;Humidity;BMP_temperature;BMP_pressure;BME280_temperature;BME280_humidity;BME280_pressure;Samples;Min_cycle;Max_cycle;Signal;HPM_P1;HPM_P2
2023/08/11 00:02:13;;;;;;;12.43;9.17;;;16.90;99.90;;;;;;5011827;28;20267;-72
2023/08/11 00:04:39;;;;;;;11.20;8.20;;;16.90;99.90;;;;;;5013485;28;20556;-72
2023/08/11 00:07:05;;;;;;;12.77;8.73;;;16.90;99.90;;;;;;5013490;28;20180;-72
2023/08/11 00:09:31;;;;;;;13.20;8.93;;;16.90;99.90;;;;;;5013524;28;20172;-72
2023/08/11 00:11:56;;;;;;;13.07;9.53;;;16.90;99.90;;;;;;5012821;28;20295;-72
2023/08/11 00:14:22;;;;;;;14.10;9.07;;;16.90;99.90;;;;;;5013279;28;20199;-72
2023/08/11 00:16:47;;;;;;;13.90;8.63;;;16.80;99.90;;;;;;5013152;28;20603;-72
2023/08/11 00:19:13;;;;;;;15.13;8.73;;;16.80;99.90;;;;;;5013350;28;20586;-72
2023/08/11 00:21:39;;;;;;;12.83;9.60;;;16.80;99.90;;;;;;5012934;28;20184;-72
2023/08/11 00:24:05;;;;;;;13.63;9.73;;;16.80;99.90;;;;;;5012929;28;20646;-72
2023/08/11 00:26:30;;;;;;;13.53;9.77;;;16.80;99.90;;;;;;5013143;28;20177;-72
2023/08/11 00:28:57;;;;;;;11.30;8.97;;;16.70;99.90;;;;;;5012942;28;20627;-72
2023/08/11 00:31:22;;;;;;;13.57;9.10;;;16.70;99.90;;;;;;5011489;28;20542;-72
2023/08/11 00:33:51;;;;;;;9.80;8.07;;;16.70;99.90;;;;;;5011450;28;20310;-72
2023/08/11 00:36:17;;;;;;;13.60;9.23;;;16.60;99.90;;;;;;5010932;28;20176;-72
2023/08/11 00:38:43;;;;;;;18.00;9.77;;;16.60;99.90;;;;;;5012228;28;20204;-72
2023/08/11 00:41:10;;;;;;;13.00;9.13;;;16.60;99.90;;;;;;5012791;28;20173;-72
2023/08/11 00:43:36;;;;;;;14.00;9.37;;;16.60;99.90;;;;;;5011481;28;20196;-72
2023/08/11 00:46:08;;;;;;;9.77;8.53;;;16.60;99.90;;;;;;5012564;28;20268;-72
2023/08/11 00:48:34;;;;;;;11.40;8.90;;;16.60;99.90;;;;;;5012856;28;20172;-72
2023/08/11 00:51:00;;;;;;;12.80;9.03;;;16.60;99.90;;;;;;5012759;28;20700;-72
2023/08/11 00:53:26;;;;;;;12.03;9.47;;;16.50;99.90;;;;;;5011454;28;20644;-72
2023/08/11 00:55:52;;;;;;;12.43;8.83;;;16.50;99.90;;;;;;5012414;28;20173;-72
2023/08/11 00:58:17;;;;;;;10.63;8.80;;;16.50;99.90;;;;;;5012422;28;20200;-72
2023/08/11 01:00:44;;;;;;;10.97;9.27;;;16.50;99.90;;;;;;5012377;28;20176;-72
2023/08/11 01:03:10;;;;;;;11.97;8.63;;;16.40;99.90;;;;;;5010121;28;20222;-72
2023/08/11 01:05:45;;;;;;;11.07;8.73;;;16.40;99.90;;;;;;5010394;28;20180;-72
2023/08/11 01:08:12;;;;;;;10.63;8.50;;;16.40;99.90;;;;;;5011007;28;20281;-72
2023/08/11 01:11:08;;;;;;;10.33;7.80;;;16.40;99.90;;;;;;5011227;28;20206;-72
2023/08/11 01:13:38;;;;;;;9.70;7.87;;;16.40;99.90;;;;;;5012115;28;20203;-72
2023/08/11 01:16:05;;;;;;;12.63;8.50;;;16.40;99.90;;;;;;5011346;28;20187;-72
2023/08/11 01:18:31;;;;;;;8.03;7.23;;;16.40;99.90;;;;;;5012351;28;20211;-72
2023/08/11 01:21:07;;;;;;;9.60;7.10;;;16.40;99.90;;;;;;5010815;28;20176;-72
2023/08/11 01:23:34;;;;;;;10.80;7.40;;;16.40;99.90;;;;;;5012125;28;20249;-72
2023/08/11 01:26:00;;;;;;;8.17;7.03;;;16.40;99.90;;;;;;5011967;28;20592;-72
2023/08/11 01:28:27;;;;;;;9.53;7.33;;;16.40;99.90;;;;;;5010545;28;20482;-72
2023/08/11 01:30:52;;;;;;;10.63;7.40;;;16.40;99.90;;;;;;5011511;28;20736;-72
2023/08/11 01:33:18;;;;;;;14.17;8.00;;;16.40;99.90;;;;;;5011269;28;20304;-72
2023/08/11 01:35:44;;;;;;;8.37;7.40;;;16.40;99.90;;;;;;5011422;28;20172;-72
2023/08/11 01:38:10;;;;;;;8.30;7.50;;;16.40;99.90;;;;;;5010050;28;20418;-72
2023/08/11 01:40:36;;;;;;;10.53;7.40;;;16.40;99.90;;;;;;5011686;28;20275;-72
2023/08/11 01:43:05;;;;;;;10.03;7.00;;;16.40;99.90;;;;;;5009657;28;20199;-72
2023/08/11 01:45:31;;;;;;;8.93;7.27;;;16.40;99.90;;;;;;5012156;28;20259;-72
2023/08/11 01:47:57;;;;;;;12.57;8.07;;;16.40;99.90;;;;;;5011943;28;20271;-72
2023/08/11 01:50:24;;;;;;;8.47;7.50;;;16.40;99.90;;;;;;5011191;28;20180;-72
2023/08/11 01:52:54;;;;;;;8.93;7.07;;;16.40;99.90;;;;;;5010918;28;20232;-72
2023/08/11 01:55:20;;;;;;;9.50;7.50;;;16.40;99.90;;;;;;5011384;28;20180;-72
2023/08/11 01:57:46;;;;;;;7.60;6.63;;;16.40;99.90;;;;;;5011026;28;20207;-72
2023/08/11 02:00:16;;;;;;;10.40;7.47;;;16.40;99.90;;;;;;5010206;28;20604;-72
2023/08/11 02:02:45;;;;;;;8.17;6.80;;;16.40;99.90;;;;;;5011035;28;20223;-73
2023/08/11 02:05:11;;;;;;;8.77;7.27;;;16.30;99.90;;;;;;5011667;28;20180;-72
2023/08/11 02:07:38;;;;;;;12.13;7.17;;;16.20;99.90;;;;;;5011417;28;20177;-72
2023/08/11 02:10:04;;;;;;;7.83;7.03;;;16.20;99.90;;;;;;5011450;28;20259;-72
2023/08/11 02:12:30;;;;;;;7.73;6.97;;;16.20;99.90;;;;;;5010058;28;20231;-72
2023/08/11 02:14:56;;;;;;;8.43;7.00;;;16.20;99.90;;;;;;5013471;28;20609;-72
2023/08/11 02:17:21;;;;;;;9.53;6.87;;;16.20;99.90;;;;;;5015054;28;20179;-72
2023/08/11 02:19:47;;;;;;;7.33;6.63;;;16.10;99.90;;;;;;5015415;28;20176;-74
2023/08/11 02:22:13;;;;;;;12.20;6.97;;;16.10;99.90;;;;;;5013841;28;20180;-72
2023/08/11 02:24:38;;;;;;;11.53;6.77;;;16.10;99.90;;;;;;5013378;28;20176;-72
2023/08/11 02:27:04;;;;;;;7.97;6.30;;;16.00;99.90;;;;;;5015476;28;20199;-72
2023/08/11 02:29:30;;;;;;;7.30;6.60;;;16.10;99.90;;;;;;5015388;28;20176;-72
2023/08/11 02:31:55;;;;;;;8.27;6.60;;;16.00;99.90;;;;;;5014898;28;20179;-72
2023/08/11 02:34:21;;;;;;;7.20;6.50;;;16.10;99.90;;;;;;5014134;28;20548;-72
2023/08/11 02:36:47;;;;;;;9.70;5.90;;;16.10;99.90;;;;;;5014837;28;20191;-72
2023/08/11 02:39:13;;;;;;;6.27;5.57;;;16.00;99.90;;;;;;5015048;28;20271;-72
2023/08/11 02:41:38;;;;;;;8.00;6.67;;;16.00;99.90;;;;;;5014531;28;20180;-72
2023/08/11 02:44:04;;;;;;;10.27;6.30;;;16.00;99.90;;;;;;5014552;28;20258;-72
2023/08/11 02:46:31;;;;;;;5.97;5.37;;;16.00;99.90;;;;;;5015072;28;20283;-72
2023/08/11 02:48:57;;;;;;;6.63;5.70;;;16.00;99.90;;;;;;5014872;28;20607;-72
2023/08/11 02:51:23;;;;;;;11.27;5.93;;;16.00;99.90;;;;;;5014899;28;20258;-72
2023/08/11 02:53:48;;;;;;;8.60;6.10;;;16.00;99.90;;;;;;5014631;28;20661;-72
2023/08/11 02:56:15;;;;;;;6.33;5.63;;;16.00;99.90;;;;;;5013582;28;20212;-71
2023/08/11 02:58:44;;;;;;;7.03;5.97;;;16.00;99.90;;;;;;5013648;28;20208;-72
2023/08/11 03:01:10;;;;;;;8.23;6.50;;;16.00;99.90;;;;;;5013332;28;20179;-72
2023/08/11 03:03:35;;;;;;;7.17;6.47;;;15.90;99.90;;;;;;5014187;28;20223;-72
2023/08/11 03:06:01;;;;;;;5.93;5.33;;;15.90;99.90;;;;;;5013189;28;20172;-72
2023/08/11 03:08:27;;;;;;;6.97;6.27;;;15.90;99.90;;;;;;5012923;28;20180;-72
2023/08/11 03:10:53;;;;;;;6.87;6.17;;;15.90;99.90;;;;;;5014224;28;20195;-72
2023/08/11 03:13:19;;;;;;;6.80;5.83;;;15.90;99.90;;;;;;5014059;28;20616;-72
2023/08/11 03:15:45;;;;;;;7.20;6.40;;;15.90;99.90;;;;;;5014233;28;20669;-72
2023/08/11 03:18:11;;;;;;;7.13;6.43;;;15.90;99.90;;;;;;5014066;28;20569;-72
2023/08/11 03:20:36;;;;;;;10.73;6.53;;;15.90;99.90;;;;;;5014268;28;20219;-71
2023/08/11 03:23:04;;;;;;;5.70;5.20;;;15.80;99.90;;;;;;5013700;28;20254;-72
2023/08/11 03:25:30;;;;;;;7.23;6.53;;;15.80;99.90;;;;;;5013467;28;20653;-75
2023/08/11 03:27:56;;;;;;;7.03;6.30;;;15.80;99.90;;;;;;5014172;28;20172;-72
2023/08/11 03:30:22;;;;;;;7.30;6.37;;;15.80;99.90;;;;;;5014207;28;20385;-72
2023/08/11 03:32:48;;;;;;;7.60;6.17;;;15.70;99.90;;;;;;5012278;28;20571;-72
2023/08/11 03:35:14;;;;;;;10.27;6.60;;;15.70;99.90;;;;;;5014172;28;20259;-72
2023/08/11 03:37:40;;;;;;;6.20;5.40;;;15.70;99.90;;;;;;5014027;28;20187;-72
2023/08/11 03:40:09;;;;;;;9.93;5.63;;;15.70;99.90;;;;;;5012958;28;20184;-72
2023/08/11 03:42:34;;;;;;;6.00;5.50;;;15.70;99.90;;;;;;5013399;28;20188;-72
2023/08/11 03:45:00;;;;;;;7.60;5.93;;;15.70;99.90;;;;;;5013741;28;20520;-72
2023/08/11 03:47:26;;;;;;;6.57;5.97;;;15.60;99.90;;;;;;5013990;28;20584;-72
2023/08/11 03:49:51;;;;;;;7.17;5.50;;;15.60;99.90;;;;;;5012435;28;20181;-72
2023/08/11 03:52:17;;;;;;;7.57;6.20;;;15.60;99.90;;;;;;5011766;28;20191;-72
2023/08/11 03:54:42;;;;;;;6.53;5.93;;;15.60;99.90;;;;;;5013087;28;20639;-72
2023/08/11 03:57:08;;;;;;;7.10;5.83;;;15.60;99.90;;;;;;5013928;28;20172;-72
2023/08/11 03:59:34;;;;;;;6.90;6.17;;;15.50;99.90;;;;;;5012355;28;20204;-72
2023/08/11 04:02:00;;;;;;;7.90;6.03;;;15.50;99.90;;;;;;5013323;28;20258;-72
2023/08/11 04:04:26;;;;;;;7.27;5.57;;;15.60;99.90;;;;;;5011910;28;20565;-72
2023/08/11 04:06:52;;;;;;;9.60;6.53;;;15.50;99.90;;;;;;5013133;28;20622;-72
2023/08/11 04:09:18;;;;;;;10.27;5.87;;;15.50;99.90;;;;;;5013347;28;20191;-72
2023/08/11 04:11:44;;;;;;;7.47;6.70;;;15.50;99.90;;;;;;5012765;28;20183;-72
2023/08/11 04:14:10;;;;;;;6.40;5.80;;;15.50;99.90;;;;;;5013206;28;20196;-72
2023/08/11 04:16:35;;;;;;;7.67;6.27;;;15.50;99.90;;;;;;5013141;28;20250;-71
2023/08/11 04:19:01;;;;;;;6.27;5.57;;;15.50;99.90;;;;;;5013214;28;20196;-72
2023/08/11 04:21:27;;;;;;;10.47;5.83;;;15.50;99.90;;;;;;5013044;28;20235;-72
2023/08/11 04:23:53;;;;;;;7.57;6.27;;;15.50;99.90;;;;;;5012722;28;20196;-72
2023/08/11 04:26:19;;;;;;;8.30;5.80;;;15.50;99.90;;;;;;5012246;28;20204;-72
2023/08/11 04:28:45;;;;;;;6.73;6.13;;;15.50;99.90;;;;;;5012813;28;20222;-72
2023/08/11 04:31:13;;;;;;;6.07;5.47;;;15.50;99.90;;;;;;5013139;28;20175;-72
2023/08/11 04:33:38;;;;;;;8.00;5.90;;;15.50;99.90;;;;;;5013012;28;20219;-73
2023/08/11 04:36:04;;;;;;;10.90;6.17;;;15.50;99.90;;;;;;5012197;28;20183;-72
2023/08/11 04:38:30;;;;;;;8.23;5.97;;;15.60;99.90;;;;;;5011994;28;20211;-72
2023/08/11 04:40:57;;;;;;;7.77;5.87;;;15.60;99.90;;;;;;5012652;28;20184;-72
2023/08/11 04:43:23;;;;;;;6.83;5.63;;;15.60;99.90;;;;;;5012564;28;20200;-72
2023/08/11 04:45:49;;;;;;;13.20;6.03;;;15.70;99.90;;;;;;5012698;28;20182;-72
2023/08/11 04:48:15;;;;;;;7.47;5.87;;;15.70;99.90;;;;;;5012562;28;20176;-72
2023/08/11 04:50:40;;;;;;;10.93;6.37;;;15.80;99.90;;;;;;5012474;28;20183;-72
2023/08/11 04:53:06;;;;;;;7.63;5.73;;;15.80;99.90;;;;;;5012365;28;20207;-72
2023/08/11 04:55:32;;;;;;;6.20;5.63;;;15.80;99.90;;;;;;5012667;28;20182;-72
2023/08/11 04:57:57;;;;;;;7.10;5.70;;;15.90;99.90;;;;;;5012530;28;20207;-72
2023/08/11 05:00:23;;;;;;;7.57;5.87;;;15.90;99.90;;;;;;5012470;28;20175;-72
2023/08/11 05:02:51;;;;;;;15.70;5.73;;;15.90;99.90;;;;;;5011600;28;20206;-73
2023/08/11 05:05:19;;;;;;;7.90;5.93;;;16.00;99.90;;;;;;5012545;28;20173;-72
2023/08/11 05:07:45;;;;;;;8.53;6.03;;;16.00;99.90;;;;;;5012486;28;20542;-72
2023/08/11 05:10:11;;;;;;;8.57;5.40;;;16.00;99.90;;;;;;5012309;28;20546;-72
2023/08/11 05:12:36;;;;;;;5.97;5.27;;;16.10;99.90;;;;;;5010752;28;20193;-72
2023/08/11 05:15:03;;;;;;;7.77;5.60;;;16.10;99.90;;;;;;5012382;28;20275;-73
2023/08/11 05:17:30;;;;;;;7.57;5.83;;;16.10;99.90;;;;;;5012338;28;20218;-72
2023/08/11 05:19:57;;;;;;;7.63;5.47;;;16.20;99.90;;;;;;5012244;28;20255;-73
2023/08/11 05:22:23;;;;;;;8.10;6.50;;;16.20;99.90;;;;;;5011853;28;20191;-72
2023/08/11 05:24:49;;;;;;;6.80;6.10;;;16.20;99.90;;;;;;5012196;28;20175;-73
2023/08/11 05:27:15;;;;;;;6.27;5.40;;;16.20;99.90;;;;;;5012260;28;20176;-72
2023/08/11 05:29:45;;;;;;;11.53;6.30;;;16.30;99.90;;;;;;5012059;28;20527;-72
2023/08/11 05:32:11;;;;;;;7.07;5.93;;;16.30;99.90;;;;;;5011451;28;20214;-72
2023/08/11 05:34:37;;;;;;;7.83;6.07;;;16.40;99.90;;;;;;5011886;28;20196;-73
2023/08/11 05:37:04;;;;;;;6.23;5.63;;;16.40;99.90;;;;;;5011989;28;20546;-73
2023/08/11 05:39:29;;;;;;;6.13;5.33;;;16.40;99.90;;;;;;5011906;28;20203;-72
2023/08/11 05:41:55;;;;;;;7.20;5.40;;;16.50;99.90;;;;;;5010475;28;20217;-72
2023/08/11 05:44:20;;;;;;;8.07;6.10;;;16.60;99.90;;;;;;5011766;28;20188;-73
2023/08/11 05:46:46;;;;;;;6.50;5.87;;;16.70;99.90;;;;;;5012059;28;20255;-72
2023/08/11 05:49:11;;;;;;;8.07;5.63;;;16.80;99.90;;;;;;5011642;28;20184;-72
2023/08/11 05:51:37;;;;;;;8.57;5.73;;;16.80;99.90;;;;;;5011392;28;20176;-72
2023/08/11 05:54:03;;;;;;;7.40;5.63;;;16.90;99.90;;;;;;5010308;28;20294;-72
2023/08/11 05:56:28;;;;;;;5.83;5.23;;;17.00;99.90;;;;;;5012048;28;20229;-72
2023/08/11 05:58:54;;;;;;;7.30;5.67;;;17.20;99.90;;;;;;5011874;28;20570;-73
2023/08/11 06:01:20;;;;;;;7.30;5.57;;;17.30;99.90;;;;;;5011674;28;20231;-72
2023/08/11 06:03:45;;;;;;;7.33;5.00;;;17.40;99.90;;;;;;5011458;28;20202;-72
2023/08/11 06:06:11;;;;;;;6.83;5.53;;;17.60;99.90;;;;;;5011562;28;20176;-72
2023/08/11 06:08:36;;;;;;;8.03;4.97;;;17.70;99.90;;;;;;5011530;28;20184;-72
2023/08/11 06:11:02;;;;;;;7.37;5.37;;;17.90;99.90;;;;;;5011651;28;20614;-73
2023/08/11 06:13:28;;;;;;;10.03;5.47;;;18.10;99.90;;;;;;5010071;28;20195;-72
2023/08/11 06:15:53;;;;;;;11.30;5.47;;;18.30;99.90;;;;;;5011203;28;20260;-72
2023/08/11 06:18:19;;;;;;;9.37;5.30;;;18.60;99.90;;;;;;5011347;28;20250;-73
2023/08/11 06:20:45;;;;;;;7.27;4.80;;;19.00;99.90;;;;;;5011455;28;20187;-73
2023/08/11 06:23:11;;;;;;;7.70;4.90;;;19.50;99.90;;;;;;5011133;28;20192;-73
2023/08/11 06:25:37;;;;;;;6.85;4.90;;;20.00;99.90;;;;;;5011617;28;20246;-73
2023/08/11 06:28:03;;;;;;;5.32;4.80;;;20.60;99.90;;;;;;5011345;28;20231;-72
2023/08/11 06:30:30;;;;;;;7.03;5.05;;;21.10;99.90;;;;;;5011364;28;20233;-73
2023/08/11 06:32:56;;;;;;;6.57;4.68;;;21.70;99.90;;;;;;5010997;28;20239;-73
2023/08/11 06:35:22;;;;;;;4.60;4.22;;;22.10;99.90;;;;;;5011529;28;20180;-73
2023/08/11 06:37:48;;;;;;;8.55;4.43;;;22.60;99.90;;;;;;5011247;28;20180;-73
2023/08/11 06:40:13;;;;;;;6.82;4.93;;;22.90;99.90;;;;;;5011245;28;20195;-73
2023/08/11 06:42:39;;;;;;;5.05;4.20;;;23.10;99.90;;;;;;5010495;28;20211;-73
2023/08/11 06:45:05;;;;;;;6.00;4.57;;;23.40;99.90;;;;;;5011341;28;20176;-72
2023/08/11 06:47:31;;;;;;;5.90;4.30;;;23.50;99.90;;;;;;5010176;28;20646;-73
2023/08/11 06:50:00;;;;;;;7.03;5.43;;;23.70;99.90;;;;;;5011106;28;20187;-73
2023/08/11 06:52:26;;;;;;;8.77;4.65;;;23.90;99.90;;;;;;5010019;28;20553;-73
2023/08/11 06:54:52;;;;;;;6.90;5.95;;;24.20;99.90;;;;;;5011210;28;20173;-73
2023/08/11 06:57:20;;;;;;;6.22;5.22;;;24.50;99.90;;;;;;5011225;28;20164;-73
2023/08/11 06:59:46;;;;;;;11.05;4.65;;;24.80;99.90;;;;;;5009963;28;20238;-73
2023/08/11 07:02:12;;;;;;;5.28;4.43;;;25.20;99.90;;;;;;5013001;28;20187;-73
2023/08/11 07:04:37;;;;;;;6.90;4.93;;;25.40;99.90;;;;;;5013313;28;20570;-73
2023/08/11 07:07:03;;;;;;;5.88;3.97;;;25.70;99.90;;;;;;5012733;28;20183;-72
2023/08/11 07:09:28;;;;;;;4.28;3.88;;;25.90;99.90;;;;;;5014039;28;20180;-73
2023/08/11 07:11:54;;;;;;;7.10;6.30;;;26.00;99.90;;;;;;5012907;28;20264;-73
2023/08/11 07:14:20;;;;;;;5.93;4.55;;;26.30;99.90;;;;;;5014112;28;20206;-73
2023/08/11 07:16:45;;;;;;;6.60;5.70;;;26.70;99.90;;;;;;5013156;28;20176;-73
2023/08/11 07:19:11;;;;;;;8.15;4.95;;;26.90;99.90;;;;;;5013667;28;20765;-73
2023/08/11 07:21:36;;;;;;;5.93;5.30;;;27.40;99.90;;;;;;5013857;28;20183;-73
2023/08/11 07:24:02;;;;;;;5.28;4.78;;;27.60;99.90;;;;;;5013404;28;20200;-73
2023/08/11 07:26:28;;;;;;;3.75;3.38;;;27.80;99.90;;;;;;5014146;28;20203;-73
2023/08/11 07:28:54;;;;;;;8.32;4.25;;;27.80;99.90;;;;;;5014107;28;20180;-73
2023/08/11 07:31:19;;;;;;;6.00;4.53;;;27.70;99.90;;;;;;5014053;28;20172;-73
2023/08/11 07:33:45;;;;;;;13.38;4.15;;;27.70;99.90;;;;;;5013800;28;20600;-73
2023/08/11 07:36:10;;;;;;;5.38;4.32;;;27.70;99.90;;;;;;5014037;28;20215;-73
2023/08/11 07:38:36;;;;;;;3.97;3.60;;;27.60;99.90;;;;;;5013839;28;20237;-73
2023/08/11 07:41:02;;;;;;;5.45;3.40;;;27.80;99.90;;;;;;5013961;28;20176;-73
2023/08/11 07:43:28;;;;;;;7.85;7.25;;;28.00;99.90;;;;;;5013631;28;20191;-73
2023/08/11 07:45:53;;;;;;;5.90;4.80;;;28.40;99.90;;;;;;5013896;28;20634;-73
2023/08/11 07:48:19;;;;;;;6.57;6.07;;;28.80;99.90;;;;;;5013737;28;20176;-73
2023/08/11 07:50:44;;;;;;;8.55;5.55;;;29.00;99.90;;;;;;5013639;28;20534;-73
2023/08/11 07:53:10;;;;;;;7.95;7.00;;;29.20;99.90;;;;;;5013389;28;20196;-73
2023/08/11 07:55:36;;;;;;;4.97;4.22;;;29.50;99.90;;;;;;5013680;28;20267;-73
2023/08/11 07:58:02;;;;;;;4.82;4.32;;;29.90;99.90;;;;;;5013638;28;20212;-73
2023/08/11 08:00:28;;;;;;;5.68;4.22;;;30.10;99.90;;;;;;5012731;28;20176;-73
2023/08/11 08:02:54;;;;;;;5.13;3.17;;;30.50;99.90;;;;;;5012274;28;20570;-73
2023/08/11 08:05:20;;;;;;;5.90;3.95;;;30.70;99.90;;;;;;5013609;28;20177;-73
2023/08/11 08:07:47;;;;;;;5.10;4.30;;;30.80;99.90;;;;;;5013697;28;20215;-73
2023/08/11 08:10:14;;;;;;;7.22;6.72;;;31.10;99.90;;;;;;5013277;28;20219;-73
2023/08/11 08:12:45;;;;;;;6.25;5.65;;;31.40;99.90;;;;;;5012888;28;20192;-73
2023/08/11 08:15:11;;;;;;;10.88;9.98;;;31.60;99.90;;;;;;5013690;28;20175;-73
2023/08/11 08:17:38;;;;;;;7.80;5.10;;;31.60;99.90;;;;;;5013164;28;20314;-73
2023/08/11 08:20:08;;;;;;;8.10;5.32;;;31.90;99.90;;;;;;5013538;28;20184;-73
2023/08/11 08:22:34;;;;;;;5.82;4.93;;;32.00;99.90;;;;;;5012901;28;20188;-73
2023/08/11 08:24:59;;;;;;;3.97;3.58;;;32.10;99.90;;;;;;5012428;28;20279;-73
2023/08/11 08:27:25;;;;;;;5.95;5.35;;;32.10;99.90;;;;;;5013313;28;20180;-73
2023/08/11 08:29:52;;;;;;;7.43;6.78;;;32.00;99.90;;;;;;5013286;28;20269;-73
2023/08/11 08:32:21;;;;;;;5.07;4.30;;;32.20;99.90;;;;;;5012374;28;20294;-73
2023/08/11 08:34:48;;;;;;;5.55;4.95;;;32.40;99.90;;;;;;5013019;28;20211;-73
2023/08/11 08:37:16;;;;;;;7.82;7.20;;;32.60;99.90;;;;;;5013195;28;20235;-74
2023/08/11 08:39:43;;;;;;;8.93;4.70;;;32.70;99.90;;;;;;5012994;28;20195;-74
2023/08/11 08:42:11;;;;;;;5.32;3.83;;;32.90;99.90;;;;;;5011426;28;20204;-74
2023/08/11 08:44:37;;;;;;;7.05;6.03;;;33.10;99.90;;;;;;5012900;28;20164;-74
2023/08/11 08:47:06;;;;;;;5.32;4.82;;;33.40;99.90;;;;;;5013113;28;20259;-74
2023/08/11 08:49:32;;;;;;;6.47;5.22;;;33.70;99.90;;;;;;5009679;28;20588;-74
2023/08/11 08:51:58;;;;;;;8.57;7.82;;;33.80;99.90;;;;;;5012347;28;20183;-73
2023/08/11 08:54:24;;;;;;;6.95;6.43;;;33.70;99.90;;;;;;5012506;28;20196;-72
2023/08/11 08:56:52;;;;;;;3.72;3.42;;;33.70;99.90;;;;;;5012684;28;20172;-73
2023/08/11 08:59:17;;;;;;;5.68;3.70;;;33.80;99.90;;;;;;5012312;28;20630;-73
2023/08/11 09:01:44;;;;;;;7.07;4.03;;;34.10;99.90;;;;;;5012231;28;20196;-73
2023/08/11 09:04:10;;;;;;;4.43;4.03;;;34.40;99.90;;;;;;5011157;28;20196;-73
2023/08/11 09:06:38;;;;;;;5.90;5.38;;;34.70;99.90;;;;;;5012567;28;20168;-73
2023/08/11 09:09:05;;;;;;;4.22;3.63;;;34.40;99.90;;;;;;5012496;28;20172;-73
2023/08/11 09:11:31;;;;;;;5.78;4.95;;;34.40;99.90;;;;;;5012284;28;20176;-73
2023/08/11 09:14:07;;;;;;;5.05;3.60;;;34.40;99.90;;;;;;5012150;28;20214;-73
2023/08/11 09:16:37;;;;;;;7.47;6.82;;;34.30;99.90;;;;;;5012140;28;20198;-73
2023/08/11 09:19:04;;;;;;;8.48;7.88;;;34.20;99.90;;;;;;5011995;28;20212;-72
2023/08/11 09:21:31;;;;;;;8.63;8.05;;;34.30;99.90;;;;;;5011258;28;20206;-73
2023/08/11 09:23:57;;;;;;;5.30;4.80;;;34.70;99.90;;;;;;5010377;28;20249;-73
2023/08/11 09:26:24;;;;;;;4.43;4.00;;;34.90;99.90;;;;;;5011950;28;20637;-74
2023/08/11 09:28:50;;;;;;;3.58;3.28;;;35.20;99.90;;;;;;5012004;28;20172;-73
2023/08/11 09:31:23;;;;;;;8.13;2.80;;;35.50;99.90;;;;;;5010576;28;20180;-73
2023/08/11 09:33:50;;;;;;;3.78;2.85;;;35.70;99.60;;;;;;5010797;28;20203;-73
2023/08/11 09:36:17;;;;;;;4.60;3.13;;;36.20;99.90;;;;;;5012009;28;20227;-73
2023/08/11 09:38:47;;;;;;;2.58;2.38;;;36.60;99.90;;;;;;5011786;28;20259;-73
2023/08/11 09:41:13;;;;;;;3.55;2.58;;;37.20;99.90;;;;;;5011900;28;20259;-73
2023/08/11 09:43:44;;;;;;;5.03;2.70;;;37.30;97.20;;;;;;5011700;28;20215;-74
2023/08/11 09:46:09;;;;;;;3.83;2.70;;;36.90;95.40;;;;;;5012045;28;20171;-73
2023/08/11 09:48:35;;;;;;;5.50;2.95;;;36.70;94.90;;;;;;5011801;28;20172;-73
2023/08/11 09:51:02;;;;;;;2.60;2.40;;;36.60;94.90;;;;;;5011893;28;20215;-73
2023/08/11 09:53:28;;;;;;;2.50;2.30;;;36.70;98.00;;;;;;5011592;28;20195;-73
2023/08/11 09:55:55;;;;;;;2.75;2.50;;;36.90;94.40;;;;;;5011801;28;20254;-74
2023/08/11 09:58:24;;;;;;;2.97;2.30;;;37.00;96.00;;;;;;5011689;28;20196;-75
2023/08/11 10:00:52;;;;;;;2.67;2.47;;;37.20;94.90;;;;;;5011693;28;20179;-74
2023/08/11 10:03:22;;;;;;;4.38;3.17;;;37.20;95.30;;;;;;5011391;28;20195;-74
2023/08/11 10:05:50;;;;;;;3.17;2.65;;;37.40;95.40;;;;;;5011640;28;20168;-74
2023/08/11 10:08:23;;;;;;;3.58;2.78;;;37.50;95.80;;;;;;5012001;28;20589;-74
2023/08/11 10:10:48;;;;;;;5.90;2.80;;;37.50;93.00;;;;;;5011604;28;20180;-74
2023/08/11 10:13:26;;;;;;;3.33;2.83;;;37.30;93.20;;;;;;5011361;28;20258;-74
2023/08/11 10:15:53;;;;;;;3.88;3.00;;;37.20;95.90;;;;;;5011611;28;20168;-74
2023/08/11 10:18:20;;;;;;;3.42;2.80;;;37.40;94.00;;;;;;5011504;28;20571;-74
2023/08/11 10:20:49;;;;;;;2.88;2.10;;;37.50;95.20;;;;;;5010441;28;20662;-74
2023/08/11 10:23:19;;;;;;;2.30;2.10;;;37.90;97.10;;;;;;5010075;28;20311;-74
2023/08/11 10:25:46;;;;;;;3.22;2.78;;;38.00;93.90;;;;;;5009822;28;20183;-74
2023/08/11 10:28:12;;;;;;;3.03;2.75;;;38.40;93.50;;;;;;5011466;28;20532;-74
2023/08/11 10:30:40;;;;;;;3.42;2.53;;;38.20;92.00;;;;;;5010191;28;20188;-74
2023/08/11 10:33:09;;;;;;;3.50;3.20;;;38.30;90.60;;;;;;5010084;28;20254;-72
2023/08/11 10:35:53;;;;;;;4.03;2.88;;;38.10;90.40;;;;;;5014690;28;20180;-73
2023/08/11 10:38:27;;;;;;;3.85;2.22;;;37.50;90.50;;;;;;5013520;28;20203;-73
2023/08/11 10:41:08;;;;;;;3.78;2.58;;;37.40;91.90;;;;;;5015437;28;20178;-74
2023/08/11 10:43:41;;;;;;;3.03;2.33;;;37.50;91.60;;;;;;5013163;28;20400;-74
2023/08/11 10:46:26;;;;;;;5.70;2.33;;;37.50;89.90;;;;;;5014830;28;20171;-74
2023/08/11 10:49:18;;;;;;;2.80;2.58;;;37.50;94.70;;;;;;5013619;28;20588;-74
2023/08/11 10:51:43;;;;;;;3.90;3.28;;;37.30;93.30;;;;;;5014579;28;20172;-73
2023/08/11 10:54:11;;;;;;;4.40;3.40;;;37.50;94.30;;;;;;5014825;28;20196;-74
2023/08/11 10:56:41;;;;;;;3.45;3.15;;;37.50;91.90;;;;;;5014402;28;20172;-75
2023/08/11 10:59:17;;;;;;;3.22;2.92;;;37.20;90.80;;;;;;5014557;28;20200;-74
2023/08/11 11:01:48;;;;;;;2.60;2.20;;;36.60;91.30;;;;;;5014689;28;20172;-73
2023/08/11 11:04:15;;;;;;;5.13;2.65;;;36.30;93.30;;;;;;5014489;28;20188;-74
2023/08/11 11:06:46;;;;;;;3.42;2.70;;;35.80;90.60;;;;;;5014542;28;20172;-74
2023/08/11 11:09:13;;;;;;;3.83;2.40;;;35.30;91.40;;;;;;5014508;28;20184;-73
2023/08/11 11:11:39;;;;;;;5.47;3.40;;;35.00;92.60;;;;;;5014392;28;20176;-74
2023/08/11 11:14:06;;;;;;;3.40;3.10;;;34.90;94.00;;;;;;5014234;28;20188;-74
2023/08/11 11:16:32;;;;;;;7.50;3.60;;;35.00;96.20;;;;;;5014351;28;20176;-74
2023/08/11 11:19:00;;;;;;;3.00;2.80;;;35.10;92.90;;;;;;5014340;28;20208;-74
2023/08/11 11:21:25;;;;;;;4.70;3.45;;;35.20;93.60;;;;;;5014273;28;20168;-74
2023/08/11 11:23:51;;;;;;;6.30;2.75;;;35.30;92.60;;;;;;5013160;28;20728;-74
2023/08/11 11:26:28;;;;;;;4.45;3.08;;;35.50;92.60;;;;;;5014406;28;20175;-74
2023/08/11 11:28:55;;;;;;;4.25;2.83;;;35.40;92.20;;;;;;5014136;28;20523;-74
2023/08/11 11:31:22;;;;;;;3.55;2.95;;;35.60;90.90;;;;;;5013865;28;20175;-73
2023/08/11 11:33:51;;;;;;;4.90;2.50;;;35.60;90.80;;;;;;5012448;28;20208;-73
2023/08/11 11:36:21;;;;;;;3.40;3.10;;;35.10;89.70;;;;;;5014343;28;20203;-73
2023/08/11 11:38:47;;;;;;;5.50;3.45;;;34.80;91.40;;;;;;5013796;28;20207;-73
2023/08/11 11:41:15;;;;;;;3.92;3.17;;;34.60;91.90;;;;;;5013902;28;20542;-73
2023/08/11 11:43:42;;;;;;;5.95;3.35;;;34.60;93.70;;;;;;5012447;28;20199;-74
2023/08/11 11:46:14;;;;;;;3.50;3.20;;;34.70;91.40;;;;;;5011871;28;20645;-73
2023/08/11 11:48:51;;;;;;;3.90;3.47;;;34.70;90.70;;;;;;5013771;28;20222;-73
2023/08/11 11:51:20;;;;;;;3.83;3.08;;;34.70;91.50;;;;;;5013818;28;20172;-74
2023/08/11 11:53:45;;;;;;;5.63;5.22;;;34.90;91.30;;;;;;5013653;28;20196;-73
2023/08/11 11:56:15;;;;;;;6.18;2.90;;;34.80;91.40;;;;;;5013761;28;20669;-72
2023/08/11 11:58:43;;;;;;;6.20;5.68;;;34.70;90.70;;;;;;5013444;28;20293;-74
2023/08/11 12:01:20;;;;;;;5.97;3.83;;;34.70;96.80;;;;;;5013606;28;20187;-73
2023/08/11 12:03:50;;;;;;;3.67;3.30;;;35.00;92.30;;;;;;5013649;28;20188;-73
2023/08/11 12:06:20;;;;;;;3.42;3.13;;;35.00;91.40;;;;;;5013606;28;20539;-73
2023/08/11 12:08:49;;;;;;;3.65;3.42;;;35.10;91.70;;;;;;5013319;28;20534;-74
2023/08/11 12:11:25;;;;;;;4.05;3.45;;;35.00;92.70;;;;;;5012036;28;20676;-74
2023/08/11 12:13:51;;;;;;;3.35;3.00;;;35.00;91.40;;;;;;5013237;28;20720;-73
2023/08/11 12:16:17;;;;;;;4.55;3.50;;;35.10;91.50;;;;;;5013496;28;20180;-73
2023/08/11 12:18:43;;;;;;;4.00;3.15;;;35.10;92.80;;;;;;5013064;28;20203;-73
2023/08/11 12:21:10;;;;;;;6.03;2.95;;;35.30;92.40;;;;;;5013313;28;20195;-74
2023/08/11 12:23:35;;;;;;;3.92;2.90;;;35.60;92.60;;;;;;5012368;28;20665;-73
2023/08/11 12:26:01;;;;;;;3.13;2.92;;;35.80;90.40;;;;;;5013164;28;20182;-74
2023/08/11 12:28:27;;;;;;;3.63;2.88;;;35.50;89.60;;;;;;5013196;28;20712;-74
2023/08/11 12:30:53;;;;;;;3.97;3.20;;;35.10;90.40;;;;;;5011745;28;20273;-73
2023/08/11 12:33:19;;;;;;;3.72;2.90;;;35.00;92.20;;;;;;5012625;28;20216;-73
2023/08/11 12:35:46;;;;;;;3.55;3.25;;;34.70;90.10;;;;;;5012960;28;20183;-73
2023/08/11 12:38:12;;;;;;;6.72;5.93;;;34.40;92.60;;;;;;5012977;28;20542;-73
2023/08/11 12:40:42;;;;;;;8.65;8.05;;;34.50;98.90;;;;;;5012758;28;20757;-74
2023/08/11 12:43:09;;;;;;;4.50;4.00;;;34.80;97.20;;;;;;5011327;28;20200;-74
2023/08/11 12:45:35;;;;;;;4.97;3.40;;;35.30;93.90;;;;;;5012855;28;20172;-74